Johann Essberger — CQKG — position and weather

sailwx.info

Track history (hours):
 
Tides and Currents Weather Stations Pressure Air Temp Water Temp Dewpoint Dewpoint Depression Visibility Wind Speed Wind Dir Waves Ship Positions

Johann Essberger

Last reported at 2017-Jun-25 17:57 UTC. Time now 2017-Jun-25 19:02 UTC.
Position N 51°34' E 003°25'.

Length 100 m; draft 6.7 m.

Type: Ship (hazmat cat B). MMSI: 255804460.

Date/timePositionNaut miles runAvg speedWind from/ knotsBaromVisibWave heightAir tempDewpointWater temp
2017-Jun-25 17:57N 51°34' E 003°25'613.8
2017-Jun-25 17:30N 51°29' E 003°30'5 9.9
2017-Jun-25 17:00N 51°26' E 003°37'611.8
2017-Jun-25 16:30N 51°23' E 003°44'713.4
2017-Jun-25 16:00N 51°22' E 003°55'611.5
2017-Jun-25 15:30N 51°26' E 004°01'510.3
2017-Jun-25 15:00N 51°22' E 004°07'4 7.9
2017-Jun-25 14:30N 51°22' E 004°13'5 0.2
2017-Jun-24 15:23N 51°18' E 004°17'0 0.4
2017-Jun-24 15:00N 51°18' E 004°17'1010.0
2017-Jun-24 14:00N 51°23' E 004°03'4 7.3
2017-Jun-24 13:30N 51°23' E 003°57'611.7
2017-Jun-24 13:00N 51°20' E 003°49'0 0.3
2017-Jun-24 12:30N 51°20' E 003°49'2 3.0
2017-Jun-24 12:00N 51°18' E 003°50'3 6.6
2017-Jun-24 11:30N 51°15' E 003°49'3 6.8
2017-Jun-24 11:00N 51°12' E 003°48'2 4.3
2017-Jun-24 10:28N 51°09' E 003°47'0 0.0
2017-Jun-24 09:58N 51°09' E 003°47'0 0.0
2017-Jun-24 09:22N 51°09' E 003°47'0 0.0
2017-Jun-24 08:52N 51°09' E 003°47'0 0.0
2017-Jun-24 07:58N 51°09' E 003°47'0 0.0
2017-Jun-24 07:28N 51°09' E 003°47'0 0.0
2017-Jun-24 06:58N 51°09' E 003°47'0 0.0
2017-Jun-24 06:28N 51°09' E 003°47'0 0.0
2017-Jun-24 05:58N 51°09' E 003°47'0 0.0
2017-Jun-24 05:28N 51°09' E 003°47'0 0.0
2017-Jun-24 04:55N 51°09' E 003°47'0 0.0
2017-Jun-24 04:28N 51°09' E 003°47'0 0.0
2017-Jun-24 03:58N 51°09' E 003°47'0 0.0
2017-Jun-24 03:28N 51°09' E 003°47'0 0.0
2017-Jun-24 02:46N 51°09' E 003°47'0 0.0
2017-Jun-24 02:28N 51°09' E 003°47'0 0.0
2017-Jun-24 01:58N 51°09' E 003°47'0 0.0
2017-Jun-24 01:16N 51°09' E 003°47'0 0.0
2017-Jun-24 00:49N 51°09' E 003°47'0 0.0
2017-Jun-24 00:25N 51°09' E 003°47'0 0.0
2017-Jun-23 23:52N 51°09' E 003°47'0 0.0
2017-Jun-23 23:25N 51°09' E 003°47'0 0.0
2017-Jun-23 22:58N 51°09' E 003°47'0 0.0
2017-Jun-23 22:28N 51°09' E 003°47'0 0.0
2017-Jun-23 21:58N 51°09' E 003°47'0 0.0
2017-Jun-23 21:04N 51°09' E 003°47'0 0.0
2017-Jun-23 20:19N 51°09' E 003°47'0 0.0
2017-Jun-23 19:58N 51°09' E 003°47'0 0.0
2017-Jun-23 19:25N 51°09' E 003°47'0 0.0
2017-Jun-23 18:58N 51°09' E 003°47'0 0.0
2017-Jun-23 18:22N 51°09' E 003°47'0 0.0
2017-Jun-23 17:52N 51°09' E 003°47'0 0.0
2017-Jun-23 16:28N 51°09' E 003°47'0 0.0
2017-Jun-23 15:34N 51°09' E 003°47'0 0.0
2017-Jun-23 15:28N 51°09' E 003°47'0 0.0
2017-Jun-23 13:54N 51°09' E 003°47'0 0.0
2017-Jun-23 13:24N 51°09' E 003°47'0 0.0
2017-Jun-23 13:00N 51°09' E 003°47'0 0.0
2017-Jun-23 12:27N 51°09' E 003°47'0 0.0
2017-Jun-23 12:00N 51°09' E 003°47'0 0.0
2017-Jun-23 11:21N 51°09' E 003°47'0 0.0
2017-Jun-23 11:00N 51°09' E 003°47'1 0.0
2017-Jun-22 18:55N 51°09' E 003°47'0 0.2
2017-Jun-22 18:30N 51°09' E 003°47'2 4.8
2017-Jun-22 18:01N 51°11' E 003°48'3 6.9
2017-Jun-22 17:31N 51°15' E 003°49'3 5.5
2017-Jun-22 17:01N 51°17' E 003°50'3 5.2
2017-Jun-22 16:30N 51°20' E 003°49'0 0.1
2017-Jun-22 16:00N 51°20' E 003°49'3 5.8
2017-Jun-22 15:30N 51°22' E 003°46'510.6
2017-Jun-22 15:00N 51°26' E 003°41'8 8.3
2017-Jun-22 14:01N 51°30' E 003°29'510.6
2017-Jun-22 13:30N 51°34' E 003°24'815.6
2017-Jun-22 13:00N 51°41' E 003°18'4 7.2
2017-Jun-22 12:30N 51°44' E 003°16'1118.8
2017-Jun-22 11:54N 51°56' E 003°18'0 0.0
2017-Jun-22 11:30N 51°56' E 003°18'913.2
2017-Jun-22 10:50N 52°04' E 003°21'2 4.9
2017-Jun-22 10:30N 52°06' E 003°21'611.1
2017-Jun-22 10:00N 52°11' E 003°23'612.2
2017-Jun-22 09:30N 52°17' E 003°24'613.1
2017-Jun-22 09:00N 52°24' E 003°26'713.5
2017-Jun-22 08:30N 52°30' E 003°29'1213.3
2017-Jun-22 07:35N 52°41' E 003°37'113.7
2017-Jun-22 07:29N 52°42' E 003°39'713.7
2017-Jun-22 07:00N 52°48' E 003°45'713.6
2017-Jun-22 06:30N 52°53' E 003°52'1912.9
2017-Jun-22 05:03N 53°06' E 004°15'112.1
2017-Jun-22 04:59N 53°06' E 004°16'612.0
2017-Jun-22 04:29N 53°10' E 004°24'611.2
2017-Jun-22 03:56N 53°16' E 004°27'510.9
2017-Jun-22 03:30N 53°21' E 004°30'6011.0
2017-Jun-21 22:01N 54°08' E 005°33'113.9
2017-Jun-21 21:56N 54°08' E 005°35'713.7
2017-Jun-21 21:26N 54°09' E 005°46'10012.5
2017-Jun-21 13:29N 53°58' E 008°35'816.1
2017-Jun-21 13:00N 53°52' E 008°44'714.2
2017-Jun-21 12:30N 53°51' E 008°56'714.5
2017-Jun-21 12:00N 53°53' E 009°07'611.4
2017-Jun-21 11:30N 53°52' E 009°17'612.3
2017-Jun-21 11:00N 53°47' E 009°23'611.8
2017-Jun-21 10:30N 53°42' E 009°29'4 6.3
2017-Jun-21 09:57N 53°39' E 009°31'0 0.0
2017-Jun-21 09:27N 53°39' E 009°31'0 0.0
2017-Jun-21 08:57N 53°39' E 009°31'0 0.0
2017-Jun-21 08:27N 53°39' E 009°31'0 0.0
2017-Jun-21 07:57N 53°39' E 009°31'0 0.0
2017-Jun-21 07:27N 53°39' E 009°31'0 0.0
2017-Jun-21 06:57N 53°39' E 009°31'0 0.0
2017-Jun-21 06:27N 53°39' E 009°31'0 0.0
2017-Jun-21 05:57N 53°39' E 009°31'0 0.0
2017-Jun-21 05:21N 53°39' E 009°31'0 0.0
2017-Jun-21 04:57N 53°39' E 009°31'0 0.0
2017-Jun-21 04:27N 53°39' E 009°31'0 0.0
2017-Jun-21 03:51N 53°39' E 009°31'0 0.0
2017-Jun-21 03:27N 53°39' E 009°31'0 0.0
2017-Jun-21 02:57N 53°39' E 009°31'0 0.0
2017-Jun-21 02:27N 53°39' E 009°31'0 0.0
2017-Jun-21 01:57N 53°39' E 009°31'0 0.0
2017-Jun-21 01:27N 53°39' E 009°31'0 0.0
2017-Jun-21 00:57N 53°39' E 009°31'0 0.0
2017-Jun-21 00:21N 53°39' E 009°31'0 0.0
2017-Jun-20 23:57N 53°39' E 009°31'0 0.0
2017-Jun-20 23:30N 53°39' E 009°31'0 0.2
2017-Jun-20 22:59N 53°39' E 009°31'0 0.0
2017-Jun-20 22:29N 53°39' E 009°31'0 0.0
2017-Jun-20 21:59N 53°39' E 009°31'0 0.0
2017-Jun-20 21:29N 53°39' E 009°31'0 0.0
2017-Jun-20 20:59N 53°39' E 009°31'0 0.0
2017-Jun-20 20:29N 53°39' E 009°31'0 0.0
2017-Jun-20 19:59N 53°39' E 009°31'0 0.0
2017-Jun-20 19:29N 53°39' E 009°31'0 0.0
2017-Jun-20 18:59N 53°39' E 009°31'0 0.0
2017-Jun-20 18:29N 53°39' E 009°31'0 0.0
2017-Jun-20 17:59N 53°39' E 009°31'0 0.0
2017-Jun-20 17:29N 53°39' E 009°31'0 0.0
2017-Jun-20 16:59N 53°39' E 009°31'0 0.0
2017-Jun-20 16:29N 53°39' E 009°31'0 0.0
2017-Jun-20 15:59N 53°39' E 009°31'0 0.0
2017-Jun-20 15:29N 53°39' E 009°31'0 0.0
2017-Jun-20 14:59N 53°39' E 009°31'0 0.0
2017-Jun-20 14:29N 53°39' E 009°31'0 0.0
2017-Jun-20 13:29N 53°39' E 009°31'0 0.0
2017-Jun-20 12:59N 53°39' E 009°31'0 0.0
2017-Jun-20 12:29N 53°39' E 009°31'0 0.0
2017-Jun-20 11:59N 53°39' E 009°31'0 0.0
2017-Jun-20 11:29N 53°39' E 009°31'0 0.0
2017-Jun-20 10:59N 53°39' E 009°31'0 0.0
2017-Jun-20 10:23N 53°39' E 009°31'0 0.0
2017-Jun-20 09:59N 53°39' E 009°31'0 0.0
2017-Jun-20 09:29N 53°39' E 009°31'0 0.0
2017-Jun-20 08:59N 53°39' E 009°31'0 0.0
2017-Jun-20 08:29N 53°39' E 009°31'0 0.0
2017-Jun-20 08:00N 53°39' E 009°31'1 1.5
2017-Jun-20 07:30N 53°40' E 009°31'713.7
2017-Jun-20 07:01N 53°45' E 009°24'815.6
2017-Jun-20 06:31N 53°52' E 009°17'713.4
2017-Jun-20 06:00N 53°52' E 009°06'815.0
2017-Jun-20 05:30N 53°50' E 008°53'713.4
2017-Jun-20 05:00N 53°53' E 008°43'815.4
2017-Jun-20 04:31N 53°58' E 008°33'815.6
2017-Jun-20 04:01N 53°59' E 008°20'714.7
2017-Jun-20 03:30N 53°59' E 008°08'4 1.2
2017-Jun-20 00:14N 54°03' E 008°07'0 0.1
2017-Jun-19 23:50N 54°03' E 008°07'0 0.0
2017-Jun-19 23:23N 54°03' E 008°07'0 0.0
2017-Jun-19 22:59N 54°03' E 008°07'0 0.0
2017-Jun-19 22:29N 54°03' E 008°07'0 0.0
2017-Jun-19 21:56N 54°03' E 008°07'0 0.0
2017-Jun-19 21:29N 54°03' E 008°07'0 0.1
2017-Jun-19 20:59N 54°03' E 008°07'0 0.0
2017-Jun-19 20:29N 54°03' E 008°07'0 0.1
2017-Jun-19 19:53N 54°03' E 008°07'0 0.1
2017-Jun-19 19:20N 54°03' E 008°07'4 0.8
2017-Jun-19 15:03N 54°01' E 008°03'114.2
2017-Jun-19 14:58N 53°60' E 008°02'713.9
2017-Jun-19 14:29N 53°57' E 007°52'7312.5
2017-Jun-19 08:40N 53°39' E 005°52'511.8
2017-Jun-19 08:13N 53°37' E 005°44'311.8
2017-Jun-19 07:59N 53°36' E 005°40'611.5
2017-Jun-19 07:31N 53°34' E 005°31'611.4
2017-Jun-19 07:01N 53°33' E 005°22'612.0
2017-Jun-19 06:30N 53°31' E 005°12'712.8
2017-Jun-19 05:57N 53°28' E 005°01'613.0
2017-Jun-19 05:30N 53°26' E 004°52'612.6
2017-Jun-19 05:01N 53°23' E 004°42'612.9
2017-Jun-19 04:30N 53°18' E 004°38'613.0
2017-Jun-19 04:01N 53°12' E 004°32'713.3
2017-Jun-19 03:30N 53°06' E 004°26'713.1
2017-Jun-19 03:00N 53°00' E 004°22'713.4
2017-Jun-19 02:30N 52°54' E 004°18'713.2
2017-Jun-19 02:01N 52°48' E 004°13'713.4
2017-Jun-19 01:31N 52°43' E 004°06'813.6
2017-Jun-19 00:57N 52°37' E 003°57'613.8
2017-Jun-19 00:30N 52°33' E 003°50'713.9
2017-Jun-19 00:00N 52°29' E 003°42'713.5
2017-Jun-18 23:30N 52°22' E 003°38'714.0
2017-Jun-18 23:00N 52°15' E 003°36'714.4
2017-Jun-18 22:30N 52°09' E 003°29'714.6
2017-Jun-18 22:00N 52°03' E 003°24'1122.1
2017-Jun-18 21:30N 51°52' E 003°20'510.4
2017-Jun-18 21:00N 51°47' E 003°17'611.3
2017-Jun-18 20:30N 51°41' E 003°18'712.9
2017-Jun-18 19:57N 51°35' E 003°24'614.0
2017-Jun-18 19:30N 51°30' E 003°29'510.7
2017-Jun-18 19:00N 51°26' E 003°35'4 8.6
2017-Jun-18 18:30N 51°26' E 003°42'510.5
2017-Jun-18 18:00N 51°22' E 003°47'611.2
2017-Jun-18 17:30N 51°22' E 003°56'5 9.7
2017-Jun-18 17:00N 51°26' E 004°01'510.1
2017-Jun-18 16:30N 51°22' E 004°08'5 8.9
2017-Jun-18 15:59N 51°21' E 004°15'4 6.1
2017-Jun-18 15:24N 51°18' E 004°17'0 0.0
2017-Jun-17 20:53N 51°18' E 004°17'0 1.0
2017-Jun-17 20:30N 51°18' E 004°17'3 5.9
2017-Jun-17 20:00N 51°21' E 004°15'4 7.9
2017-Jun-17 19:30N 51°23' E 004°09'611.8
2017-Jun-17 19:00N 51°26' E 004°01'612.8
2017-Jun-17 18:30N 51°21' E 003°54'714.3
2017-Jun-17 18:00N 51°23' E 003°43'611.9
2017-Jun-17 17:31N 51°26' E 003°34'713.1
2017-Jun-17 17:00N 51°31' E 003°27'714.3
2017-Jun-17 16:30N 51°37' E 003°21'814.0
2017-Jun-17 15:58N 51°44' E 003°15'6312.9
2017-Jun-17 11:04N 52°32' E 002°09'114.7
2017-Jun-17 10:59N 52°33' E 002°08'714.7
2017-Jun-17 10:30N 52°39' E 002°03'714.4
2017-Jun-17 10:00N 52°45' E 001°57'714.1
2017-Jun-17 09:31N 52°49' E 001°48'713.6
2017-Jun-17 09:01N 52°54' E 001°39'713.4
2017-Jun-17 08:30N 52°59' E 001°32'713.2
2017-Jun-17 08:00N 53°04' E 001°25'613.1
2017-Jun-17 07:31N 53°10' E 001°20'5513.1
2017-Jun-17 03:18N 53°57' E 000°32'413.3
2017-Jun-17 03:00N 54°00' E 000°29'713.3
2017-Jun-17 02:31N 54°06' E 000°23'713.5
2017-Jun-17 02:01N 54°12' E 000°17'713.7
2017-Jun-17 01:31N 54°17' E 000°11'713.7
2017-Jun-17 01:01N 54°23' E 000°04'713.8
2017-Jun-17 00:30N 54°29' W 000°02'713.7
2017-Jun-17 00:01N 54°35' W 000°09'714.3
2017-Jun-16 23:31N 54°39' W 000°19'  
Track history (hours):
 
Tides and Currents Weather Stations Pressure Air Temp Water Temp Dewpoint Dewpoint Depression Visibility Wind Speed Wind Dir Waves Ship Positions

Johann Essberger

Last reported at 2017-Jun-25 17:57 UTC. Time now 2017-Jun-25 19:02 UTC.
Position N 51°34' E 003°25'.

Length 100 m; draft 6.7 m.

Type: Ship (hazmat cat B). MMSI: 255804460.

Date/timePositionNaut miles runAvg speedWind from/ knotsBaromVisibWave heightAir tempDewpointWater temp
2017-Jun-25 17:57N 51°34' E 003°25'613.8
2017-Jun-25 17:30N 51°29' E 003°30'5 9.9
2017-Jun-25 17:00N 51°26' E 003°37'611.8
2017-Jun-25 16:30N 51°23' E 003°44'713.4
2017-Jun-25 16:00N 51°22' E 003°55'611.5
2017-Jun-25 15:30N 51°26' E 004°01'510.3
2017-Jun-25 15:00N 51°22' E 004°07'4 7.9
2017-Jun-25 14:30N 51°22' E 004°13'5 0.2
2017-Jun-24 15:23N 51°18' E 004°17'0 0.4
2017-Jun-24 15:00N 51°18' E 004°17'1010.0
2017-Jun-24 14:00N 51°23' E 004°03'4 7.3
2017-Jun-24 13:30N 51°23' E 003°57'611.7
2017-Jun-24 13:00N 51°20' E 003°49'0 0.3
2017-Jun-24 12:30N 51°20' E 003°49'2 3.0
2017-Jun-24 12:00N 51°18' E 003°50'3 6.6
2017-Jun-24 11:30N 51°15' E 003°49'3 6.8
2017-Jun-24 11:00N 51°12' E 003°48'2 4.3
2017-Jun-24 10:28N 51°09' E 003°47'0 0.0
2017-Jun-24 09:58N 51°09' E 003°47'0 0.0
2017-Jun-24 09:22N 51°09' E 003°47'0 0.0
2017-Jun-24 08:52N 51°09' E 003°47'0 0.0
2017-Jun-24 07:58N 51°09' E 003°47'0 0.0
2017-Jun-24 07:28N 51°09' E 003°47'0 0.0
2017-Jun-24 06:58N 51°09' E 003°47'0 0.0
2017-Jun-24 06:28N 51°09' E 003°47'0 0.0
2017-Jun-24 05:58N 51°09' E 003°47'0 0.0
2017-Jun-24 05:28N 51°09' E 003°47'0 0.0
2017-Jun-24 04:55N 51°09' E 003°47'0 0.0
2017-Jun-24 04:28N 51°09' E 003°47'0 0.0
2017-Jun-24 03:58N 51°09' E 003°47'0 0.0
2017-Jun-24 03:28N 51°09' E 003°47'0 0.0
2017-Jun-24 02:46N 51°09' E 003°47'0 0.0
2017-Jun-24 02:28N 51°09' E 003°47'0 0.0
2017-Jun-24 01:58N 51°09' E 003°47'0 0.0
2017-Jun-24 01:16N 51°09' E 003°47'0 0.0
2017-Jun-24 00:49N 51°09' E 003°47'0 0.0
2017-Jun-24 00:25N 51°09' E 003°47'0 0.0
2017-Jun-23 23:52N 51°09' E 003°47'0 0.0
2017-Jun-23 23:25N 51°09' E 003°47'0 0.0
2017-Jun-23 22:58N 51°09' E 003°47'0 0.0
2017-Jun-23 22:28N 51°09' E 003°47'0 0.0
2017-Jun-23 21:58N 51°09' E 003°47'0 0.0
2017-Jun-23 21:04N 51°09' E 003°47'0 0.0
2017-Jun-23 20:19N 51°09' E 003°47'0 0.0
2017-Jun-23 19:58N 51°09' E 003°47'0 0.0
2017-Jun-23 19:25N 51°09' E 003°47'0 0.0
2017-Jun-23 18:58N 51°09' E 003°47'0 0.0
2017-Jun-23 18:22N 51°09' E 003°47'0 0.0
2017-Jun-23 17:52N 51°09' E 003°47'0 0.0
2017-Jun-23 16:28N 51°09' E 003°47'0 0.0
2017-Jun-23 15:34N 51°09' E 003°47'0 0.0
2017-Jun-23 15:28N 51°09' E 003°47'0 0.0
2017-Jun-23 13:54N 51°09' E 003°47'0 0.0
2017-Jun-23 13:24N 51°09' E 003°47'0 0.0
2017-Jun-23 13:00N 51°09' E 003°47'0 0.0
2017-Jun-23 12:27N 51°09' E 003°47'0 0.0
2017-Jun-23 12:00N 51°09' E 003°47'0 0.0
2017-Jun-23 11:21N 51°09' E 003°47'0 0.0
2017-Jun-23 11:00N 51°09' E 003°47'1 0.0
2017-Jun-22 18:55N 51°09' E 003°47'0 0.2
2017-Jun-22 18:30N 51°09' E 003°47'2 4.8
2017-Jun-22 18:01N 51°11' E 003°48'3 6.9
2017-Jun-22 17:31N 51°15' E 003°49'3 5.5
2017-Jun-22 17:01N 51°17' E 003°50'3 5.2
2017-Jun-22 16:30N 51°20' E 003°49'0 0.1
2017-Jun-22 16:00N 51°20' E 003°49'3 5.8
2017-Jun-22 15:30N 51°22' E 003°46'510.6
2017-Jun-22 15:00N 51°26' E 003°41'8 8.3
2017-Jun-22 14:01N 51°30' E 003°29'510.6
2017-Jun-22 13:30N 51°34' E 003°24'815.6
2017-Jun-22 13:00N 51°41' E 003°18'4 7.2
2017-Jun-22 12:30N 51°44' E 003°16'1118.8
2017-Jun-22 11:54N 51°56' E 003°18'0 0.0
2017-Jun-22 11:30N 51°56' E 003°18'913.2
2017-Jun-22 10:50N 52°04' E 003°21'2 4.9
2017-Jun-22 10:30N 52°06' E 003°21'611.1
2017-Jun-22 10:00N 52°11' E 003°23'612.2
2017-Jun-22 09:30N 52°17' E 003°24'613.1
2017-Jun-22 09:00N 52°24' E 003°26'713.5
2017-Jun-22 08:30N 52°30' E 003°29'1213.3
2017-Jun-22 07:35N 52°41' E 003°37'113.7
2017-Jun-22 07:29N 52°42' E 003°39'713.7
2017-Jun-22 07:00N 52°48' E 003°45'713.6
2017-Jun-22 06:30N 52°53' E 003°52'1912.9
2017-Jun-22 05:03N 53°06' E 004°15'112.1
2017-Jun-22 04:59N 53°06' E 004°16'612.0
2017-Jun-22 04:29N 53°10' E 004°24'611.2
2017-Jun-22 03:56N 53°16' E 004°27'510.9
2017-Jun-22 03:30N 53°21' E 004°30'6011.0
2017-Jun-21 22:01N 54°08' E 005°33'113.9
2017-Jun-21 21:56N 54°08' E 005°35'713.7
2017-Jun-21 21:26N 54°09' E 005°46'10012.5
2017-Jun-21 13:29N 53°58' E 008°35'816.1
2017-Jun-21 13:00N 53°52' E 008°44'714.2
2017-Jun-21 12:30N 53°51' E 008°56'714.5
2017-Jun-21 12:00N 53°53' E 009°07'611.4
2017-Jun-21 11:30N 53°52' E 009°17'612.3
2017-Jun-21 11:00N 53°47' E 009°23'611.8
2017-Jun-21 10:30N 53°42' E 009°29'4 6.3
2017-Jun-21 09:57N 53°39' E 009°31'0 0.0
2017-Jun-21 09:27N 53°39' E 009°31'0 0.0
2017-Jun-21 08:57N 53°39' E 009°31'0 0.0
2017-Jun-21 08:27N 53°39' E 009°31'0 0.0
2017-Jun-21 07:57N 53°39' E 009°31'0 0.0
2017-Jun-21 07:27N 53°39' E 009°31'0 0.0
2017-Jun-21 06:57N 53°39' E 009°31'0 0.0
2017-Jun-21 06:27N 53°39' E 009°31'0 0.0
2017-Jun-21 05:57N 53°39' E 009°31'0 0.0
2017-Jun-21 05:21N 53°39' E 009°31'0 0.0
2017-Jun-21 04:57N 53°39' E 009°31'0 0.0
2017-Jun-21 04:27N 53°39' E 009°31'0 0.0
2017-Jun-21 03:51N 53°39' E 009°31'0 0.0
2017-Jun-21 03:27N 53°39' E 009°31'0 0.0
2017-Jun-21 02:57N 53°39' E 009°31'0 0.0
2017-Jun-21 02:27N 53°39' E 009°31'0 0.0
2017-Jun-21 01:57N 53°39' E 009°31'0 0.0
2017-Jun-21 01:27N 53°39' E 009°31'0 0.0
2017-Jun-21 00:57N 53°39' E 009°31'0 0.0
2017-Jun-21 00:21N 53°39' E 009°31'0 0.0
2017-Jun-20 23:57N 53°39' E 009°31'0 0.0
2017-Jun-20 23:30N 53°39' E 009°31'0 0.2
2017-Jun-20 22:59N 53°39' E 009°31'0 0.0
2017-Jun-20 22:29N 53°39' E 009°31'0 0.0
2017-Jun-20 21:59N 53°39' E 009°31'0 0.0
2017-Jun-20 21:29N 53°39' E 009°31'0 0.0
2017-Jun-20 20:59N 53°39' E 009°31'0 0.0
2017-Jun-20 20:29N 53°39' E 009°31'0 0.0
2017-Jun-20 19:59N 53°39' E 009°31'0 0.0
2017-Jun-20 19:29N 53°39' E 009°31'0 0.0
2017-Jun-20 18:59N 53°39' E 009°31'0 0.0
2017-Jun-20 18:29N 53°39' E 009°31'0 0.0
2017-Jun-20 17:59N 53°39' E 009°31'0 0.0
2017-Jun-20 17:29N 53°39' E 009°31'0 0.0
2017-Jun-20 16:59N 53°39' E 009°31'0 0.0
2017-Jun-20 16:29N 53°39' E 009°31'0 0.0
2017-Jun-20 15:59N 53°39' E 009°31'0 0.0
2017-Jun-20 15:29N 53°39' E 009°31'0 0.0
2017-Jun-20 14:59N 53°39' E 009°31'0 0.0
2017-Jun-20 14:29N 53°39' E 009°31'0 0.0
2017-Jun-20 13:29N 53°39' E 009°31'0 0.0
2017-Jun-20 12:59N 53°39' E 009°31'0 0.0
2017-Jun-20 12:29N 53°39' E 009°31'0 0.0
2017-Jun-20 11:59N 53°39' E 009°31'0 0.0
2017-Jun-20 11:29N 53°39' E 009°31'0 0.0
2017-Jun-20 10:59N 53°39' E 009°31'0 0.0
2017-Jun-20 10:23N 53°39' E 009°31'0 0.0
2017-Jun-20 09:59N 53°39' E 009°31'0 0.0
2017-Jun-20 09:29N 53°39' E 009°31'0 0.0
2017-Jun-20 08:59N 53°39' E 009°31'0 0.0
2017-Jun-20 08:29N 53°39' E 009°31'0 0.0
2017-Jun-20 08:00N 53°39' E 009°31'1 1.5
2017-Jun-20 07:30N 53°40' E 009°31'713.7
2017-Jun-20 07:01N 53°45' E 009°24'815.6
2017-Jun-20 06:31N 53°52' E 009°17'713.4
2017-Jun-20 06:00N 53°52' E 009°06'815.0
2017-Jun-20 05:30N 53°50' E 008°53'713.4
2017-Jun-20 05:00N 53°53' E 008°43'815.4
2017-Jun-20 04:31N 53°58' E 008°33'815.6
2017-Jun-20 04:01N 53°59' E 008°20'714.7
2017-Jun-20 03:30N 53°59' E 008°08'4 1.2
2017-Jun-20 00:14N 54°03' E 008°07'0 0.1
2017-Jun-19 23:50N 54°03' E 008°07'0 0.0
2017-Jun-19 23:23N 54°03' E 008°07'0 0.0
2017-Jun-19 22:59N 54°03' E 008°07'0 0.0
2017-Jun-19 22:29N 54°03' E 008°07'0 0.0
2017-Jun-19 21:56N 54°03' E 008°07'0 0.0
2017-Jun-19 21:29N 54°03' E 008°07'0 0.1
2017-Jun-19 20:59N 54°03' E 008°07'0 0.0
2017-Jun-19 20:29N 54°03' E 008°07'0 0.1
2017-Jun-19 19:53N 54°03' E 008°07'0 0.1
2017-Jun-19 19:20N 54°03' E 008°07'4 0.8
2017-Jun-19 15:03N 54°01' E 008°03'114.2
2017-Jun-19 14:58N 53°60' E 008°02'713.9
2017-Jun-19 14:29N 53°57' E 007°52'7312.5
2017-Jun-19 08:40N 53°39' E 005°52'511.8
2017-Jun-19 08:13N 53°37' E 005°44'311.8
2017-Jun-19 07:59N 53°36' E 005°40'611.5
2017-Jun-19 07:31N 53°34' E 005°31'611.4
2017-Jun-19 07:01N 53°33' E 005°22'612.0
2017-Jun-19 06:30N 53°31' E 005°12'712.8
2017-Jun-19 05:57N 53°28' E 005°01'613.0
2017-Jun-19 05:30N 53°26' E 004°52'612.6
2017-Jun-19 05:01N 53°23' E 004°42'612.9
2017-Jun-19 04:30N 53°18' E 004°38'613.0
2017-Jun-19 04:01N 53°12' E 004°32'713.3
2017-Jun-19 03:30N 53°06' E 004°26'713.1
2017-Jun-19 03:00N 53°00' E 004°22'713.4
2017-Jun-19 02:30N 52°54' E 004°18'713.2
2017-Jun-19 02:01N 52°48' E 004°13'713.4
2017-Jun-19 01:31N 52°43' E 004°06'813.6
2017-Jun-19 00:57N 52°37' E 003°57'613.8
2017-Jun-19 00:30N 52°33' E 003°50'713.9
2017-Jun-19 00:00N 52°29' E 003°42'713.5
2017-Jun-18 23:30N 52°22' E 003°38'714.0
2017-Jun-18 23:00N 52°15' E 003°36'714.4
2017-Jun-18 22:30N 52°09' E 003°29'714.6
2017-Jun-18 22:00N 52°03' E 003°24'1122.1
2017-Jun-18 21:30N 51°52' E 003°20'510.4
2017-Jun-18 21:00N 51°47' E 003°17'611.3
2017-Jun-18 20:30N 51°41' E 003°18'712.9
2017-Jun-18 19:57N 51°35' E 003°24'614.0
2017-Jun-18 19:30N 51°30' E 003°29'510.7
2017-Jun-18 19:00N 51°26' E 003°35'4 8.6
2017-Jun-18 18:30N 51°26' E 003°42'510.5
2017-Jun-18 18:00N 51°22' E 003°47'611.2
2017-Jun-18 17:30N 51°22' E 003°56'5 9.7
2017-Jun-18 17:00N 51°26' E 004°01'510.1
2017-Jun-18 16:30N 51°22' E 004°08'5 8.9
2017-Jun-18 15:59N 51°21' E 004°15'4 6.1
2017-Jun-18 15:24N 51°18' E 004°17'0 0.0
2017-Jun-17 20:53N 51°18' E 004°17'0 1.0
2017-Jun-17 20:30N 51°18' E 004°17'3 5.9
2017-Jun-17 20:00N 51°21' E 004°15'4 7.9
2017-Jun-17 19:30N 51°23' E 004°09'611.8
2017-Jun-17 19:00N 51°26' E 004°01'612.8
2017-Jun-17 18:30N 51°21' E 003°54'714.3
2017-Jun-17 18:00N 51°23' E 003°43'611.9
2017-Jun-17 17:31N 51°26' E 003°34'713.1
2017-Jun-17 17:00N 51°31' E 003°27'714.3
2017-Jun-17 16:30N 51°37' E 003°21'814.0
2017-Jun-17 15:58N 51°44' E 003°15'6312.9
2017-Jun-17 11:04N 52°32' E 002°09'114.7
2017-Jun-17 10:59N 52°33' E 002°08'714.7
2017-Jun-17 10:30N 52°39' E 002°03'714.4
2017-Jun-17 10:00N 52°45' E 001°57'714.1
2017-Jun-17 09:31N 52°49' E 001°48'713.6
2017-Jun-17 09:01N 52°54' E 001°39'713.4
2017-Jun-17 08:30N 52°59' E 001°32'713.2
2017-Jun-17 08:00N 53°04' E 001°25'613.1
2017-Jun-17 07:31N 53°10' E 001°20'5513.1
2017-Jun-17 03:18N 53°57' E 000°32'413.3
2017-Jun-17 03:00N 54°00' E 000°29'713.3
2017-Jun-17 02:31N 54°06' E 000°23'713.5
2017-Jun-17 02:01N 54°12' E 000°17'713.7
2017-Jun-17 01:31N 54°17' E 000°11'713.7
2017-Jun-17 01:01N 54°23' E 000°04'713.8
2017-Jun-17 00:30N 54°29' W 000°02'713.7
2017-Jun-17 00:01N 54°35' W 000°09'714.3
2017-Jun-16 23:31N 54°39' W 000°19'  

Dump ship's entire track history